Time;durP1;ratioP1;P1;durP2;ratioP2;P2;SDS_P1;SDS_P2;PMS_P1;PMS_P2;Temp;Humidity;BMP_temperature;BMP_pressure;BME280_temperature;BME280_humidity;BME280_pressure;Samples;Min_cycle;Max_cycle;Signal;HPM_P1;HPM_P2
2021/07/09 00:02:05;;;;;;;19.10;9.68;;;23.40;62.20;;;;;;4996939;28;20085;-84
2021/07/09 00:04:32;;;;;;;17.23;9.30;;;23.40;62.20;;;;;;4995670;28;20041;-84
2021/07/09 00:06:58;;;;;;;17.30;9.43;;;23.30;62.30;;;;;;4996156;28;20026;-84
2021/07/09 00:09:25;;;;;;;11.65;7.78;;;23.30;62.50;;;;;;4994955;28;20026;-85
2021/07/09 00:11:52;;;;;;;;;;;23.30;62.60;;;;;;5001594;28;20030;-83
2021/07/09 00:14:22;;;;;;;13.98;9.32;;;23.30;61.80;;;;;;4997952;28;19917;-84
2021/07/09 00:16:48;;;;;;;15.68;9.52;;;23.20;62.90;;;;;;4995274;28;20038;-82
2021/07/09 00:19:15;;;;;;;14.30;8.73;;;23.20;63.10;;;;;;4995067;28;20476;-84
2021/07/09 00:21:41;;;;;;;23.52;9.90;;;23.20;63.30;;;;;;4993092;28;20050;-84
2021/07/09 00:24:08;;;;;;;18.13;9.10;;;23.20;63.40;;;;;;4992958;28;20045;-85
2021/07/09 00:26:35;;;;;;;13.82;9.50;;;23.20;63.40;;;;;;4994599;28;20018;-83
2021/07/09 00:29:01;;;;;;;14.30;9.13;;;23.20;63.50;;;;;;4996401;28;20487;-84
2021/07/09 00:31:29;;;;;;;20.65;10.15;;;23.20;63.60;;;;;;4995466;28;20062;-84
2021/07/09 00:33:56;;;;;;;14.63;8.95;;;23.20;63.80;;;;;;4992814;28;20034;-86
2021/07/09 00:36:22;;;;;;;18.60;8.82;;;23.10;63.50;;;;;;4990299;28;20019;-83
2021/07/09 00:38:48;;;;;;;16.25;9.90;;;23.10;63.90;;;;;;4976558;28;20069;-83
2021/07/09 00:41:14;;;;;;;17.27;9.20;;;23.10;64.00;;;;;;4991827;28;20060;-83
2021/07/09 00:43:40;;;;;;;18.63;9.45;;;23.10;64.20;;;;;;4993776;28;20030;-83
2021/07/09 00:46:07;;;;;;;22.52;9.90;;;23.10;64.30;;;;;;4994038;28;20030;-83
2021/07/09 00:48:34;;;;;;;14.85;8.48;;;23.10;64.40;;;;;;4994908;28;20105;-84
2021/07/09 00:51:01;;;;;;;16.70;9.88;;;23.00;64.50;;;;;;4995402;28;20026;-83
2021/07/09 00:53:26;;;;;;;15.32;8.95;;;23.00;64.60;;;;;;4993908;28;20023;-81
2021/07/09 00:55:52;;;;;;;18.95;9.07;;;23.00;64.70;;;;;;4992509;28;20022;-83
2021/07/09 00:58:19;;;;;;;16.55;9.70;;;23.00;64.90;;;;;;4992929;28;20018;-82
2021/07/09 01:00:45;;;;;;;16.63;8.73;;;22.90;65.10;;;;;;4994733;28;20038;-82
2021/07/09 01:03:11;;;;;;;19.95;9.38;;;22.90;65.10;;;;;;4993363;28;20022;-82
2021/07/09 01:05:37;;;;;;;16.48;9.02;;;22.90;65.30;;;;;;4990088;28;20043;-83
2021/07/09 01:08:05;;;;;;;21.75;9.63;;;22.80;65.40;;;;;;4993366;28;20022;-82
2021/07/09 01:10:31;;;;;;;20.95;10.00;;;22.80;65.60;;;;;;4992587;28;20034;-84
2021/07/09 01:12:58;;;;;;;16.30;9.33;;;22.80;65.70;;;;;;4993475;28;20050;-84
2021/07/09 01:15:24;;;;;;;13.77;9.32;;;22.80;65.70;;;;;;4994863;28;20034;-84
2021/07/09 01:17:51;;;;;;;18.83;10.05;;;22.80;65.90;;;;;;4995384;28;20025;-84
2021/07/09 01:20:18;;;;;;;17.25;9.68;;;22.80;66.10;;;;;;4995686;28;20109;-83
2021/07/09 01:22:47;;;;;;;20.50;10.30;;;22.80;66.20;;;;;;4993837;28;20034;-83
2021/07/09 01:25:17;;;;;;;16.83;8.32;;;22.80;66.30;;;;;;4993740;28;20030;-84
2021/07/09 01:27:45;;;;;;;21.40;9.75;;;22.80;66.50;;;;;;4989440;28;20029;-84
2021/07/09 01:30:14;;;;;;;15.63;8.98;;;22.70;66.50;;;;;;4995003;28;20034;-83
2021/07/09 01:32:40;;;;;;;17.75;9.57;;;22.80;66.60;;;;;;4995659;28;20027;-83
2021/07/09 01:35:07;;;;;;;17.02;9.93;;;22.80;66.60;;;;;;4994268;28;20025;-84
2021/07/09 01:37:33;;;;;;;19.83;9.52;;;22.80;66.60;;;;;;4993417;28;20026;-84
2021/07/09 01:40:00;;;;;;;17.38;9.63;;;22.80;66.80;;;;;;4993390;28;20031;-84
2021/07/09 01:42:26;;;;;;;16.95;9.98;;;22.80;66.90;;;;;;4994468;28;20027;-84
2021/07/09 01:44:52;;;;;;;16.42;9.80;;;22.80;67.00;;;;;;4996217;28;20042;-85
2021/07/09 01:47:18;;;;;;;20.08;10.88;;;22.80;67.10;;;;;;4997146;28;20018;-82
2021/07/09 01:49:58;;;;;;;14.95;8.82;;;22.80;67.10;;;;;;4993077;28;20034;-83
2021/07/09 01:52:26;;;;;;;19.83;11.20;;;22.90;66.80;;;;;;4997708;28;20022;-84
2021/07/09 01:54:53;;;;;;;14.07;10.18;;;22.90;66.80;;;;;;4997237;28;20014;-82
2021/07/09 01:57:19;;;;;;;17.23;10.77;;;23.00;66.60;;;;;;4996955;28;20030;-84
2021/07/09 01:59:45;;;;;;;19.55;9.60;;;23.10;66.40;;;;;;4996881;28;20073;-83
2021/07/09 02:02:12;;;;;;;16.35;9.98;;;23.10;66.30;;;;;;4997132;28;20062;-84
2021/07/09 02:04:48;;;;;;;20.15;10.02;;;23.10;66.20;;;;;;4997148;28;20031;-84
2021/07/09 02:07:15;;;;;;;16.42;10.60;;;23.20;66.10;;;;;;4997165;28;20037;-85
2021/07/09 02:09:43;;;;;;;18.25;10.55;;;23.20;66.30;;;;;;4997379;28;20046;-84
2021/07/09 02:12:09;;;;;;;20.35;9.55;;;23.20;66.10;;;;;;4997071;28;20034;-84
2021/07/09 02:14:34;;;;;;;22.42;10.25;;;23.20;66.00;;;;;;4997172;28;20034;-83
2021/07/09 02:17:00;;;;;;;20.00;10.07;;;23.30;65.80;;;;;;4996062;28;20039;-85
2021/07/09 02:19:26;;;;;;;21.60;10.95;;;23.30;65.90;;;;;;4997610;28;20026;-84
2021/07/09 02:21:56;;;;;;;19.10;10.30;;;23.30;65.60;;;;;;4999215;28;20093;-84
2021/07/09 02:24:21;;;;;;;18.50;10.30;;;23.40;65.60;;;;;;5003557;28;20061;-86
2021/07/09 02:26:47;;;;;;;17.77;9.20;;;23.40;65.60;;;;;;4998334;28;20396;-83
2021/07/09 02:29:13;;;;;;;20.42;11.02;;;23.50;65.60;;;;;;4996678;28;20022;-83
2021/07/09 02:31:39;;;;;;;20.50;10.20;;;23.50;65.50;;;;;;5005736;28;20030;-83
2021/07/09 02:34:05;;;;;;;16.15;10.48;;;23.60;65.40;;;;;;4999735;28;20035;-83
2021/07/09 02:36:31;;;;;;;18.45;10.43;;;23.60;65.40;;;;;;4996898;28;20534;-83
2021/07/09 02:38:56;;;;;;;21.52;10.55;;;23.70;65.30;;;;;;4997279;28;20563;-83
2021/07/09 02:41:22;;;;;;;16.80;11.07;;;23.70;65.20;;;;;;4996840;28;20018;-83
2021/07/09 02:43:48;;;;;;;20.38;10.23;;;23.80;65.00;;;;;;4997167;28;20038;-83
2021/07/09 02:46:14;;;;;;;22.42;10.70;;;23.80;65.00;;;;;;4993883;28;20023;-83
2021/07/09 02:48:39;;;;;;;17.67;9.98;;;23.90;64.90;;;;;;4996678;28;20105;-85
2021/07/09 02:51:05;;;;;;;22.52;10.75;;;23.90;64.80;;;;;;4996815;28;20387;-83
2021/07/09 02:53:31;;;;;;;15.88;9.77;;;24.00;64.60;;;;;;4998027;28;20045;-82
2021/07/09 02:55:57;;;;;;;21.05;10.48;;;24.10;64.40;;;;;;4998669;28;20022;-84
2021/07/09 02:58:23;;;;;;;19.73;10.33;;;24.10;64.20;;;;;;4997761;28;20119;-83
2021/07/09 03:00:49;;;;;;;16.73;10.73;;;24.20;64.00;;;;;;4997264;28;20308;-83
2021/07/09 03:03:15;;;;;;;17.98;9.82;;;24.30;63.80;;;;;;4996616;28;20026;-83
2021/07/09 03:05:41;;;;;;;15.50;10.77;;;24.30;63.40;;;;;;4996222;28;20038;-82
2021/07/09 03:08:06;;;;;;;23.73;10.23;;;24.40;63.30;;;;;;4996194;28;20029;-84
2021/07/09 03:10:32;;;;;;;20.30;10.13;;;24.40;63.10;;;;;;4996640;28;20026;-84
2021/07/09 03:12:58;;;;;;;23.15;9.18;;;24.40;63.10;;;;;;4995701;28;20052;-84
2021/07/09 03:15:24;;;;;;;14.88;8.88;;;24.50;63.00;;;;;;4995526;28;20101;-84
2021/07/09 03:17:50;;;;;;;19.05;9.18;;;24.60;62.60;;;;;;4995755;28;20383;-84
2021/07/09 03:20:16;;;;;;;14.30;9.02;;;24.60;62.40;;;;;;4995988;28;20022;-84
2021/07/09 03:22:42;;;;;;;14.23;9.48;;;24.70;62.10;;;;;;4995767;28;20033;-86
2021/07/09 03:25:09;;;;;;;17.08;9.60;;;24.70;62.20;;;;;;5007902;28;20081;-85
2021/07/09 03:27:35;;;;;;;17.27;9.40;;;24.80;62.20;;;;;;5006139;28;20023;-84
2021/07/09 03:30:01;;;;;;;20.80;10.68;;;24.80;62.10;;;;;;4998300;28;20038;-85
2021/07/09 03:32:27;;;;;;;16.27;9.38;;;24.80;61.80;;;;;;4995815;28;20018;-85
2021/07/09 03:34:53;;;;;;;14.50;10.07;;;24.80;61.90;;;;;;4996125;28;20026;-83
2021/07/09 03:37:19;;;;;;;11.77;8.27;;;24.90;61.50;;;;;;4995666;28;20022;-85
2021/07/09 03:39:45;;;;;;;18.42;10.13;;;25.00;61.20;;;;;;4996175;28;20027;-84
2021/07/09 03:42:11;;;;;;;19.67;9.65;;;25.10;61.00;;;;;;4995552;28;20022;-83
2021/07/09 03:44:36;;;;;;;17.50;9.25;;;25.20;61.70;;;;;;4995316;28;20042;-84
2021/07/09 03:47:02;;;;;;;14.02;9.15;;;25.30;61.10;;;;;;4995580;28;20118;-85
2021/07/09 03:49:28;;;;;;;16.05;9.02;;;25.30;60.00;;;;;;4995321;28;20034;-83
2021/07/09 03:51:54;;;;;;;15.70;9.45;;;25.40;59.70;;;;;;4995682;28;20451;-85
2021/07/09 03:54:20;;;;;;;17.98;10.48;;;25.50;59.50;;;;;;4994086;28;20089;-81
2021/07/09 03:56:46;;;;;;;14.93;9.00;;;25.50;59.50;;;;;;4995092;28;20459;-84
2021/07/09 03:59:11;;;;;;;19.30;10.35;;;25.50;59.60;;;;;;4996326;28;20399;-82
2021/07/09 04:01:37;;;;;;;17.33;9.32;;;25.50;59.80;;;;;;4998019;28;20018;-84
2021/07/09 04:04:03;;;;;;;12.02;9.00;;;25.60;59.50;;;;;;5000139;28;20026;-83
2021/07/09 04:06:29;;;;;;;17.38;10.35;;;25.70;59.30;;;;;;4998438;28;20549;-84
2021/07/09 04:08:55;;;;;;;17.92;9.73;;;25.70;59.20;;;;;;4994284;28;20023;-82
2021/07/09 04:11:21;;;;;;;19.00;9.70;;;25.70;59.70;;;;;;4995316;28;20026;-83
2021/07/09 04:13:46;;;;;;;21.45;9.82;;;25.80;59.00;;;;;;4994609;28;20157;-83
2021/07/09 04:16:12;;;;;;;21.25;9.88;;;25.90;58.90;;;;;;4994928;28;20037;-83
2021/07/09 04:18:38;;;;;;;10.55;8.52;;;25.90;58.70;;;;;;4994475;28;20026;-82
2021/07/09 04:21:04;;;;;;;12.23;9.00;;;26.00;58.10;;;;;;4993234;28;20369;-84
2021/07/09 04:23:30;;;;;;;16.60;8.70;;;26.00;58.10;;;;;;4995283;28;20528;-82
2021/07/09 04:25:56;;;;;;;13.45;7.85;;;26.20;57.60;;;;;;4995462;28;20034;-83
2021/07/09 04:28:22;;;;;;;18.23;8.70;;;26.20;57.30;;;;;;4995678;28;20019;-85
2021/07/09 04:30:49;;;;;;;16.05;8.80;;;26.20;57.10;;;;;;4995304;28;20038;-83
2021/07/09 04:33:16;;;;;;;12.13;8.65;;;26.30;57.20;;;;;;4997345;28;20014;-84
2021/07/09 04:35:42;;;;;;;12.27;7.20;;;26.40;57.20;;;;;;4994147;28;20421;-84
2021/07/09 04:38:07;;;;;;;10.90;7.57;;;26.40;56.10;;;;;;4993472;28;20027;-83
2021/07/09 04:40:33;;;;;;;13.55;6.95;;;26.40;56.10;;;;;;4994803;28;20058;-84
2021/07/09 04:43:02;;;;;;;11.80;6.72;;;26.50;56.00;;;;;;4995201;28;20042;-86
2021/07/09 04:45:28;;;;;;;11.50;7.28;;;26.60;55.70;;;;;;4981564;28;20030;-85
2021/07/09 04:47:54;;;;;;;14.77;7.50;;;26.60;56.30;;;;;;4994384;28;20023;-85
2021/07/09 04:50:20;;;;;;;11.88;6.05;;;26.70;55.10;;;;;;4994604;28;20045;-85
2021/07/09 04:52:45;;;;;;;15.38;7.20;;;26.80;54.50;;;;;;4994623;28;20074;-84
2021/07/09 04:55:12;;;;;;;9.45;6.85;;;26.80;54.30;;;;;;4994278;28;20022;-84
2021/07/09 04:57:38;;;;;;;11.93;6.78;;;26.80;54.20;;;;;;4996142;28;20023;-83
2021/07/09 05:00:08;;;;;;;9.50;5.68;;;26.80;54.10;;;;;;5000399;28;20118;-84
2021/07/09 05:02:43;;;;;;;9.05;5.65;;;26.80;54.10;;;;;;4999459;28;20025;-85
2021/07/09 05:05:15;;;;;;;9.38;5.85;;;26.90;53.90;;;;;;4998614;28;20580;-85
2021/07/09 05:07:43;;;;;;;8.00;5.95;;;26.90;53.80;;;;;;4995455;28;20030;-84
2021/07/09 05:10:10;;;;;;;12.75;6.05;;;26.90;53.80;;;;;;4994616;28;20117;-83
2021/07/09 05:12:36;;;;;;;7.85;5.35;;;27.10;53.40;;;;;;4994799;28;20035;-85
2021/07/09 05:15:03;;;;;;;9.38;6.10;;;27.40;52.90;;;;;;4997249;28;20045;-86
2021/07/09 05:17:29;;;;;;;7.18;5.93;;;28.20;51.50;;;;;;4995324;28;20029;-85
2021/07/09 05:19:55;;;;;;;7.13;5.35;;;29.10;50.10;;;;;;4994822;28;20030;-83
2021/07/09 05:22:22;;;;;;;7.47;5.25;;;30.00;48.00;;;;;;4996679;28;20555;-83
2021/07/09 05:24:53;;;;;;;11.30;6.50;;;30.80;46.50;;;;;;4996073;28;20053;-83
2021/07/09 05:27:18;;;;;;;12.93;5.30;;;31.60;44.90;;;;;;4994677;28;20777;-85
2021/07/09 05:29:44;;;;;;;7.17;5.90;;;32.30;43.50;;;;;;4994501;28;20101;-84
2021/07/09 05:32:10;;;;;;;7.47;4.80;;;32.90;42.60;;;;;;4996238;28;20035;-86
2021/07/09 05:34:36;;;;;;;9.03;5.47;;;33.40;41.60;;;;;;4995835;28;20089;-84
2021/07/09 05:37:03;;;;;;;8.07;6.17;;;33.80;40.80;;;;;;4998994;28;20027;-87
2021/07/09 05:39:28;;;;;;;7.28;5.57;;;34.30;40.00;;;;;;4977767;28;20035;-85
2021/07/09 05:41:54;;;;;;;12.27;5.37;;;34.60;39.40;;;;;;4995594;28;20031;-86
2021/07/09 05:44:20;;;;;;;8.90;5.27;;;35.20;38.60;;;;;;4995009;28;20132;-85
2021/07/09 05:46:49;;;;;;;15.77;5.97;;;35.40;37.90;;;;;;4994614;28;20061;-85
2021/07/09 05:49:15;;;;;;;7.60;5.30;;;35.60;37.80;;;;;;4995551;28;20035;-85
2021/07/09 05:51:41;;;;;;;6.40;4.73;;;36.00;37.10;;;;;;4996655;28;20564;-85
2021/07/09 05:54:07;;;;;;;11.18;5.95;;;36.30;36.90;;;;;;4994894;28;20038;-85
2021/07/09 05:56:33;;;;;;;8.03;5.00;;;36.50;36.50;;;;;;4994214;28;20030;-83
2021/07/09 05:58:58;;;;;;;6.97;4.77;;;36.60;36.00;;;;;;4996193;28;20061;-86
2021/07/09 06:01:24;;;;;;;8.67;4.80;;;37.00;35.90;;;;;;4994427;28;20471;-87
2021/07/09 06:03:50;;;;;;;16.35;5.53;;;37.50;35.40;;;;;;4993568;28;20031;-86
2021/07/09 06:06:16;;;;;;;10.27;5.38;;;38.20;35.20;;;;;;4993812;28;20065;-84
2021/07/09 06:08:42;;;;;;;12.68;5.45;;;38.50;34.50;;;;;;4991639;28;20060;-84
2021/07/09 06:11:08;;;;;;;10.02;4.80;;;39.30;33.80;;;;;;4993646;28;20030;-84
2021/07/09 06:13:34;;;;;;;10.27;5.63;;;39.90;33.60;;;;;;4992644;28;20501;-83
2021/07/09 06:15:59;;;;;;;12.00;4.53;;;40.80;32.70;;;;;;4993384;28;20519;-84
2021/07/09 06:18:25;;;;;;;14.32;5.03;;;41.60;32.70;;;;;;4993331;28;20026;-87
2021/07/09 06:20:51;;;;;;;13.55;5.30;;;42.60;30.50;;;;;;4995027;28;20034;-88
2021/07/09 06:23:18;;;;;;;6.28;5.05;;;42.70;30.00;;;;;;4997756;28;20032;-87
2021/07/09 06:25:44;;;;;;;10.60;4.75;;;43.10;29.70;;;;;;4993786;28;20042;-89
2021/07/09 06:28:10;;;;;;;12.10;5.00;;;43.70;29.00;;;;;;4981220;28;20536;-88
2021/07/09 06:30:36;;;;;;;12.10;5.60;;;44.70;29.00;;;;;;4993693;28;20026;-89
2021/07/09 06:33:02;;;;;;;;;;;45.40;28.70;;;;;;4998468;28;20026;-84
2021/07/09 06:35:30;;;;;;;12.73;5.53;;;45.70;29.10;;;;;;4989495;28;19956;-83
2021/07/09 06:37:57;;;;;;;7.57;4.60;;;45.70;27.90;;;;;;4985598;28;20026;-88
2021/07/09 06:40:23;;;;;;;11.13;5.05;;;45.90;27.50;;;;;;4997075;28;20052;-88
2021/07/09 06:42:51;;;;;;;12.57;4.88;;;45.50;27.50;;;;;;4992716;28;20073;-86
2021/07/09 06:45:17;;;;;;;6.78;5.20;;;45.50;28.20;;;;;;4998946;28;20030;-85
2021/07/09 06:47:42;;;;;;;10.93;5.32;;;46.10;27.00;;;;;;4996357;28;20030;-85
2021/07/09 06:50:08;;;;;;;11.13;5.22;;;46.20;27.40;;;;;;4997848;28;20081;-86
2021/07/09 06:52:34;;;;;;;10.80;5.30;;;46.20;26.60;;;;;;4998703;28;20053;-87
2021/07/09 06:55:00;;;;;;;6.78;4.50;;;46.90;26.10;;;;;;5003855;28;20054;-86
2021/07/09 06:57:26;;;;;;;8.48;4.93;;;46.50;26.00;;;;;;4998204;28;20026;-87
2021/07/09 06:59:51;;;;;;;7.30;4.68;;;46.20;26.40;;;;;;4996651;28;20158;-84
2021/07/09 07:02:19;;;;;;;7.53;5.55;;;46.30;26.80;;;;;;4984207;28;20028;-87
2021/07/09 07:04:45;;;;;;;8.98;4.90;;;46.50;26.50;;;;;;5002411;28;20066;-86
2021/07/09 07:07:11;;;;;;;7.18;5.00;;;46.50;26.50;;;;;;4998707;28;20189;-87
2021/07/09 07:09:38;;;;;;;5.63;4.70;;;47.40;26.30;;;;;;5000284;28;20064;-88
2021/07/09 07:12:05;;;;;;;10.75;5.30;;;47.50;25.80;;;;;;5004448;28;20018;-87
2021/07/09 07:14:32;;;;;;;7.40;5.47;;;47.30;25.90;;;;;;4998186;28;20045;-86
2021/07/09 07:16:58;;;;;;;7.13;4.95;;;47.20;25.80;;;;;;4999202;28;20030;-87
2021/07/09 07:19:25;;;;;;;8.20;5.65;;;46.20;26.10;;;;;;4998573;28;20388;-85
2021/07/09 07:21:52;;;;;;;7.18;4.72;;;46.00;26.50;;;;;;5000307;28;20027;-87
2021/07/09 07:24:18;;;;;;;9.85;5.10;;;46.00;26.50;;;;;;4998207;28;20030;-87
2021/07/09 07:26:44;;;;;;;11.18;5.57;;;45.30;26.60;;;;;;4996217;28;20034;-87
2021/07/09 07:29:10;;;;;;;6.75;5.22;;;45.60;26.60;;;;;;4997268;28;20414;-87
2021/07/09 07:31:36;;;;;;;5.53;5.03;;;44.90;26.90;;;;;;4995381;28;20034;-84
2021/07/09 07:34:02;;;;;;;6.68;5.43;;;44.50;27.30;;;;;;4996766;28;20084;-87
2021/07/09 07:36:28;;;;;;;8.38;5.03;;;44.90;27.10;;;;;;4997136;28;20022;-86
2021/07/09 07:38:53;;;;;;;6.93;5.40;;;45.30;27.20;;;;;;4997763;28;20027;-86
2021/07/09 07:41:20;;;;;;;9.00;5.97;;;45.90;26.70;;;;;;4997533;28;20400;-85
2021/07/09 07:43:46;;;;;;;7.00;4.72;;;46.30;26.30;;;;;;4997896;28;20034;-87
2021/07/09 07:46:14;;;;;;;11.25;4.95;;;45.80;26.40;;;;;;4997300;28;20030;-86
2021/07/09 07:48:40;;;;;;;9.70;5.38;;;45.90;26.60;;;;;;4995990;28;20026;-86
2021/07/09 07:51:06;;;;;;;7.28;4.65;;;46.50;26.30;;;;;;4996585;28;20451;-86
2021/07/09 07:53:34;;;;;;;5.05;4.53;;;46.80;26.30;;;;;;4995892;28;20463;-87
2021/07/09 07:56:05;;;;;;;7.93;5.60;;;47.60;26.10;;;;;;4994970;28;20027;-87
2021/07/09 07:58:30;;;;;;;13.50;6.38;;;48.20;25.70;;;;;;4995886;28;20034;-87
2021/07/09 08:00:58;;;;;;;6.13;5.28;;;48.40;25.50;;;;;;4997036;28;20477;-84
2021/07/09 08:03:24;;;;;;;11.23;4.65;;;48.10;25.50;;;;;;4995752;28;20503;-85
2021/07/09 08:05:50;;;;;;;7.88;4.20;;;48.10;25.60;;;;;;4995542;28;20116;-86
2021/07/09 08:08:16;;;;;;;11.15;5.45;;;48.60;25.50;;;;;;4996441;28;20488;-88
2021/07/09 08:10:42;;;;;;;7.35;5.30;;;49.20;25.10;;;;;;4995629;28;20035;-86
2021/07/09 08:13:09;;;;;;;8.20;4.82;;;48.70;25.00;;;;;;4995716;28;20042;-86
2021/07/09 08:15:34;;;;;;;7.55;5.00;;;48.40;25.20;;;;;;4995348;28;20027;-86
2021/07/09 08:18:00;;;;;;;7.55;5.00;;;48.20;25.20;;;;;;4998195;28;20029;-87
2021/07/09 08:20:28;;;;;;;8.07;5.30;;;48.20;25.20;;;;;;4997595;28;20030;-87
2021/07/09 08:22:57;;;;;;;6.47;4.72;;;47.70;25.30;;;;;;4997739;28;20094;-88
2021/07/09 08:25:22;;;;;;;6.10;5.43;;;47.30;25.20;;;;;;4995592;28;20063;-86
2021/07/09 08:27:48;;;;;;;7.88;5.50;;;45.80;25.80;;;;;;4996160;28;20120;-87
2021/07/09 08:30:14;;;;;;;5.50;4.90;;;45.20;26.40;;;;;;4996130;28;20391;-85
2021/07/09 08:32:40;;;;;;;11.68;4.85;;;44.90;26.60;;;;;;4997348;28;20038;-85
2021/07/09 08:35:07;;;;;;;14.38;7.13;;;44.80;27.60;;;;;;4995464;28;20490;-86
2021/07/09 08:37:35;;;;;;;7.25;5.10;;;44.70;27.10;;;;;;4982554;28;20040;-86
2021/07/09 08:40:01;;;;;;;9.80;5.55;;;45.60;26.70;;;;;;4996430;28;20424;-85
2021/07/09 08:42:27;;;;;;;8.75;6.28;;;46.50;26.60;;;;;;4998709;28;20037;-87
2021/07/09 08:44:53;;;;;;;6.05;4.40;;;46.40;26.10;;;;;;5003344;28;20030;-86
2021/07/09 08:47:19;;;;;;;12.27;4.45;;;46.60;25.90;;;;;;4997159;28;20062;-86
2021/07/09 08:49:48;;;;;;;5.22;4.38;;;47.30;25.20;;;;;;4997346;28;20034;-85
2021/07/09 08:52:15;;;;;;;5.20;4.53;;;47.80;25.20;;;;;;4996327;28;20514;-85
2021/07/09 08:54:41;;;;;;;7.50;4.95;;;48.00;25.00;;;;;;4993158;28;20373;-86
2021/07/09 08:57:08;;;;;;;5.53;4.50;;;48.10;24.80;;;;;;4995919;28;20079;-86
2021/07/09 08:59:34;;;;;;;5.40;4.10;;;48.00;25.00;;;;;;4997546;28;20038;-85
2021/07/09 09:02:03;;;;;;;6.00;4.13;;;48.00;25.10;;;;;;5001305;28;20034;-86
2021/07/09 09:04:37;;;;;;;8.40;4.60;;;49.00;25.20;;;;;;5002626;28;20046;-86
2021/07/09 09:07:06;;;;;;;6.78;4.40;;;49.90;24.70;;;;;;5002083;28;20022;-85
2021/07/09 09:09:37;;;;;;;9.82;5.28;;;49.80;24.60;;;;;;4994420;28;20400;-85
2021/07/09 09:12:08;;;;;;;6.70;4.30;;;49.70;24.60;;;;;;4993279;28;20026;-87
2021/07/09 09:14:40;;;;;;;7.68;4.32;;;49.90;24.40;;;;;;4993822;28;20060;-86
2021/07/09 09:17:30;;;;;;;5.65;4.40;;;49.20;24.30;;;;;;4994625;28;20043;-85
2021/07/09 09:20:05;;;;;;;6.13;4.43;;;48.70;24.70;;;;;;4995071;28;20037;-86
2021/07/09 09:22:32;;;;;;;6.40;4.70;;;48.50;24.90;;;;;;4995573;28;20365;-86
2021/07/09 09:25:04;;;;;;;6.05;4.03;;;48.00;24.90;;;;;;4995122;28;20066;-86
2021/07/09 09:27:30;;;;;;;7.95;4.65;;;48.10;25.30;;;;;;4994715;28;20023;-88
2021/07/09 09:30:10;;;;;;;10.63;4.60;;;47.60;25.20;;;;;;4998088;28;20040;-86
2021/07/09 09:32:45;;;;;;;6.57;4.55;;;48.00;25.10;;;;;;4995171;28;20096;-87
2021/07/09 09:35:11;;;;;;;8.40;4.88;;;48.00;24.80;;;;;;4995919;28;20023;-86
2021/07/09 09:37:48;;;;;;;6.78;4.57;;;47.70;24.80;;;;;;4985745;28;20445;-85
2021/07/09 09:40:19;;;;;;;6.93;3.95;;;47.80;24.90;;;;;;4993539;28;20495;-87
2021/07/09 09:42:47;;;;;;;6.60;4.22;;;48.00;24.90;;;;;;5008208;28;20027;-88
2021/07/09 09:45:17;;;;;;;5.18;4.68;;;48.10;24.90;;;;;;4981020;28;20476;-85
2021/07/09 09:47:43;;;;;;;5.68;4.32;;;48.30;24.80;;;;;;4996188;28;20026;-86
2021/07/09 09:50:15;;;;;;;5.65;4.70;;;48.10;24.70;;;;;;4993902;28;20105;-87
2021/07/09 09:52:52;;;;;;;5.25;4.75;;;47.90;25.00;;;;;;4994475;28;20105;-87
2021/07/09 09:55:32;;;;;;;5.90;4.88;;;48.10;25.00;;;;;;4994320;28;20017;-87
2021/07/09 09:58:18;;;;;;;4.95;4.45;;;47.20;25.10;;;;;;4994376;28;20026;-85
2021/07/09 10:00:49;;;;;;;5.78;4.72;;;47.40;25.20;;;;;;4994777;28;20027;-85
2021/07/09 10:03:15;;;;;;;9.35;5.05;;;47.00;25.20;;;;;;4992804;28;20027;-86
2021/07/09 10:05:46;;;;;;;5.10;4.70;;;47.40;25.20;;;;;;4995009;28;20042;-86
2021/07/09 10:08:13;;;;;;;7.05;4.72;;;47.50;25.20;;;;;;4998413;28;20018;-87
2021/07/09 10:10:44;;;;;;;7.75;4.47;;;47.20;24.70;;;;;;4999499;28;20431;-88
2021/07/09 10:13:15;;;;;;;11.77;5.20;;;46.80;25.10;;;;;;4997657;28;20048;-86
2021/07/09 10:15:43;;;;;;;6.40;4.60;;;46.90;25.10;;;;;;4999425;28;20456;-83
2021/07/09 10:18:13;;;;;;;8.73;4.72;;;47.50;25.10;;;;;;5003462;28;20499;-86
2021/07/09 10:20:44;;;;;;;10.45;4.78;;;47.50;24.30;;;;;;4999993;28;20034;-86
2021/07/09 10:23:13;;;;;;;12.07;4.70;;;46.90;24.50;;;;;;5006914;28;20030;-85
2021/07/09 10:25:39;;;;;;;6.90;4.80;;;45.60;24.90;;;;;;5002289;28;20487;-85
2021/07/09 10:28:08;;;;;;;7.45;4.75;;;44.40;25.50;;;;;;4998238;28;20023;-86
2021/07/09 10:30:39;;;;;;;6.35;4.78;;;44.00;25.90;;;;;;4997859;28;20026;-85
2021/07/09 10:33:33;;;;;;;7.53;4.40;;;43.80;25.70;;;;;;4997846;28;20027;-86
2021/07/09 10:36:00;;;;;;;6.13;5.47;;;;;;;;;;4989711;28;20468;-85
2021/07/09 10:38:36;;;;;;;8.88;5.60;;;41.10;26.90;;;;;;4998046;28;20384;-87
2021/07/09 10:41:18;;;;;;;9.40;5.85;;;39.50;28.40;;;;;;4997867;28;20029;-86
2021/07/09 10:44:12;;;;;;;9.43;6.00;;;38.30;29.10;;;;;;4992852;28;20037;-86
2021/07/09 10:46:37;;;;;;;8.13;5.85;;;37.30;30.00;;;;;;4995117;28;20034;-86
2021/07/09 10:49:03;;;;;;;6.80;6.17;;;36.70;31.50;;;;;;4996654;28;20426;-85
2021/07/09 10:51:57;;;;;;;8.63;6.57;;;36.10;32.00;;;;;;4998477;28;20034;-85
2021/07/09 10:54:30;;;;;;;10.68;6.45;;;35.50;32.40;;;;;;4995618;28;20034;-86
2021/07/09 10:57:21;;;;;;;8.30;5.82;;;35.10;33.10;;;;;;4997258;28;20029;-86
2021/07/09 11:00:24;;;;;;;10.05;5.93;;;34.60;33.40;;;;;;4996119;28;20030;-87
2021/07/09 11:03:03;;;;;;;9.25;5.50;;;34.20;33.60;;;;;;4988738;28;20057;-86
2021/07/09 11:05:44;;;;;;;7.93;5.70;;;34.00;34.20;;;;;;4996393;28;20530;-87
2021/07/09 11:08:31;;;;;;;7.50;5.50;;;33.90;34.10;;;;;;4996293;28;20464;-86
2021/07/09 11:11:07;;;;;;;7.53;5.97;;;33.70;34.60;;;;;;4986494;28;20023;-88
2021/07/09 11:13:42;;;;;;;9.05;6.13;;;33.40;35.30;;;;;;4998587;28;20050;-87
2021/07/09 11:16:29;;;;;;;8.35;6.78;;;33.20;35.50;;;;;;4997528;28;20076;-85
2021/07/09 11:18:59;;;;;;;8.82;6.18;;;33.00;36.00;;;;;;5004609;28;20022;-86
2021/07/09 11:21:37;;;;;;;8.50;5.97;;;33.00;36.50;;;;;;5006936;28;20023;-86
2021/07/09 11:24:11;;;;;;;8.23;5.85;;;32.90;36.00;;;;;;5003656;28;20033;-89
2021/07/09 11:26:40;;;;;;;7.05;6.35;;;32.80;36.40;;;;;;5001976;28;20094;-83
2021/07/09 11:29:38;;;;;;;9.50;6.28;;;32.60;36.60;;;;;;5000215;28;20018;-86
2021/07/09 11:32:15;;;;;;;6.57;5.88;;;32.70;36.40;;;;;;4988907;28;20038;-86
2021/07/09 11:34:44;;;;;;;8.18;7.25;;;32.70;36.80;;;;;;4988061;28;20058;-86
2021/07/09 11:37:20;;;;;;;6.80;6.10;;;32.60;36.60;;;;;;5004486;28;20022;-85
2021/07/09 11:39:51;;;;;;;9.88;6.43;;;32.50;36.90;;;;;;4988742;28;20073;-86
2021/07/09 11:42:28;;;;;;;8.32;6.72;;;32.40;37.20;;;;;;4997553;28;20030;-86
2021/07/09 11:44:56;;;;;;;9.50;7.00;;;32.50;37.40;;;;;;4996836;28;20184;-85
2021/07/09 11:47:30;;;;;;;10.82;6.10;;;32.50;37.50;;;;;;4996205;28;20018;-88
2021/07/09 11:50:07;;;;;;;12.80;9.73;;;32.60;37.10;;;;;;4999104;28;20093;-87
2021/07/09 11:52:36;;;;;;;10.85;6.60;;;32.50;37.30;;;;;;4997749;28;20046;-87
2021/07/09 11:55:08;;;;;;;11.75;6.35;;;32.50;37.40;;;;;;4993463;28;20035;-88
2021/07/09 11:57:40;;;;;;;6.65;5.75;;;32.50;36.90;;;;;;4986946;28;20040;-88
2021/07/09 12:00:14;;;;;;;7.97;6.57;;;32.50;36.30;;;;;;4996013;28;20108;-87
2021/07/09 12:02:44;;;;;;;8.68;5.75;;;32.50;37.00;;;;;;4996315;28;20460;-85
2021/07/09 12:05:12;;;;;;;7.70;5.63;;;32.50;36.60;;;;;;4996304;28;20034;-87
2021/07/09 12:07:49;;;;;;;9.52;6.30;;;32.40;36.30;;;;;;4996431;28;20029;-85
2021/07/09 12:10:20;;;;;;;9.35;5.75;;;32.30;36.30;;;;;;4996692;28;20033;-89
2021/07/09 12:12:51;;;;;;;9.23;5.68;;;32.20;36.40;;;;;;4996649;28;20375;-85
2021/07/09 12:15:24;;;;;;;8.40;6.07;;;32.20;37.50;;;;;;4996525;28;20092;-87
2021/07/09 12:17:59;;;;;;;8.35;5.55;;;32.30;37.00;;;;;;4996609;28;20026;-87
2021/07/09 12:20:33;;;;;;;10.50;6.85;;;32.30;36.60;;;;;;4997052;28;20023;-87
2021/07/09 12:23:02;;;;;;;9.85;6.00;;;32.30;36.90;;;;;;4999253;28;20357;-86
2021/07/09 12:25:35;;;;;;;8.02;5.45;;;32.30;37.10;;;;;;4997038;28;20121;-88
2021/07/09 12:28:19;;;;;;;8.32;6.40;;;32.30;36.70;;;;;;5001559;28;20566;-89
2021/07/09 12:30:48;;;;;;;7.53;5.70;;;32.20;37.00;;;;;;5000568;28;20045;-88
2021/07/09 12:33:30;;;;;;;9.00;6.25;;;32.10;37.10;;;;;;5001088;28;20041;-87
2021/07/09 12:36:08;;;;;;;8.30;5.85;;;32.10;37.30;;;;;;5001056;28;20084;-87
2021/07/09 12:38:36;;;;;;;11.23;6.28;;;;;;;;;;4996396;28;20037;-85
2021/07/09 12:41:12;;;;;;;7.03;5.55;;;32.10;37.70;;;;;;4998366;28;20018;-87
2021/07/09 12:43:46;;;;;;;7.05;5.22;;;32.00;37.80;;;;;;4983549;28;20025;-88
2021/07/09 12:46:18;;;;;;;8.80;5.85;;;31.90;37.80;;;;;;4995853;28;20034;-88
2021/07/09 12:48:57;;;;;;;9.35;5.43;;;31.90;37.80;;;;;;4995653;28;20027;-88